sensor_id;sensor_type;location;lat;lon;timestamp;pressure;altitude;pressure_sealevel;temperature;humidity
13974;BME280;7060;43.770;4.008;2023-08-21T00:00:06;101267.38;;;24.80;47.00
13974;BME280;7060;43.770;4.008;2023-08-21T00:02:38;101266.38;;;24.75;47.10
13974;BME280;7060;43.770;4.008;2023-08-21T00:05:08;101264.25;;;24.77;47.04
13974;BME280;7060;43.770;4.008;2023-08-21T00:07:37;101252.66;;;24.81;47.03
13974;BME280;7060;43.770;4.008;2023-08-21T00:10:07;101262.38;;;24.77;47.05
13974;BME280;7060;43.770;4.008;2023-08-21T00:12:37;101261.38;;;24.72;47.16
13974;BME280;7060;43.770;4.008;2023-08-21T00:15:09;101265.88;;;24.66;47.43
13974;BME280;7060;43.770;4.008;2023-08-21T00:17:40;101266.72;;;24.60;47.50
13974;BME280;7060;43.770;4.008;2023-08-21T00:20:10;101257.13;;;24.51;47.44
13974;BME280;7060;43.770;4.008;2023-08-21T00:22:39;101266.56;;;24.55;47.55
13974;BME280;7060;43.770;4.008;2023-08-21T00:25:08;101268.91;;;24.51;47.63
13974;BME280;7060;43.770;4.008;2023-08-21T00:27:37;101261.97;;;24.49;47.59
13974;BME280;7060;43.770;4.008;2023-08-21T00:30:06;101265.16;;;24.46;47.50
13974;BME280;7060;43.770;4.008;2023-08-21T00:32:36;101267.97;;;24.39;47.66
13974;BME280;7060;43.770;4.008;2023-08-21T00:35:07;101269.88;;;24.39;47.85
13974;BME280;7060;43.770;4.008;2023-08-21T00:37:36;101268.66;;;24.35;47.84
13974;BME280;7060;43.770;4.008;2023-08-21T00:40:05;101269.53;;;24.28;48.12
13974;BME280;7060;43.770;4.008;2023-08-21T00:42:34;101268.75;;;24.21;48.36
13974;BME280;7060;43.770;4.008;2023-08-21T00:45:04;101265.09;;;24.09;48.46
13974;BME280;7060;43.770;4.008;2023-08-21T00:47:35;101263.22;;;24.03;48.54
13974;BME280;7060;43.770;4.008;2023-08-21T00:50:07;101269.97;;;24.01;48.80
13974;BME280;7060;43.770;4.008;2023-08-21T00:52:36;101267.25;;;24.01;48.58
13974;BME280;7060;43.770;4.008;2023-08-21T00:55:07;101266.34;;;24.07;48.26
13974;BME280;7060;43.770;4.008;2023-08-21T00:57:37;101269.09;;;24.07;48.93
13974;BME280;7060;43.770;4.008;2023-08-21T01:00:07;101264.91;;;24.04;48.86
13974;BME280;7060;43.770;4.008;2023-08-21T01:02:37;101267.47;;;23.99;48.95
13974;BME280;7060;43.770;4.008;2023-08-21T01:05:12;101269.34;;;23.92;48.98
13974;BME280;7060;43.770;4.008;2023-08-21T01:07:48;101268.81;;;23.83;49.08
13974;BME280;7060;43.770;4.008;2023-08-21T01:10:22;101260.63;;;23.83;48.94
13974;BME280;7060;43.770;4.008;2023-08-21T01:12:57;101234.84;;;23.73;48.83
13974;BME280;7060;43.770;4.008;2023-08-21T01:15:30;101259.50;;;23.91;48.88
13974;BME280;7060;43.770;4.008;2023-08-21T01:17:59;101259.50;;;23.91;49.24
13974;BME280;7060;43.770;4.008;2023-08-21T01:20:30;101254.50;;;23.88;49.13
13974;BME280;7060;43.770;4.008;2023-08-21T01:23:04;101262.31;;;23.78;49.07
13974;BME280;7060;43.770;4.008;2023-08-21T01:25:34;101261.97;;;23.68;49.23
13974;BME280;7060;43.770;4.008;2023-08-21T01:28:03;101260.34;;;23.60;49.45
13974;BME280;7060;43.770;4.008;2023-08-21T01:30:32;101267.84;;;23.64;49.73
13974;BME280;7060;43.770;4.008;2023-08-21T01:33:06;101165.91;;;23.08;49.84
13974;BME280;7060;43.770;4.008;2023-08-21T01:35:38;101255.72;;;23.60;49.85
13974;BME280;7060;43.770;4.008;2023-08-21T01:38:07;101263.22;;;23.65;49.79
13974;BME280;7060;43.770;4.008;2023-08-21T01:40:37;101267.50;;;23.54;49.66
13974;BME280;7060;43.770;4.008;2023-08-21T01:43:06;101263.59;;;23.37;50.42
13974;BME280;7060;43.770;4.008;2023-08-21T01:45:35;101267.84;;;23.26;50.61
13974;BME280;7060;43.770;4.008;2023-08-21T01:48:06;101274.34;;;23.19;50.48
13974;BME280;7060;43.770;4.008;2023-08-21T01:50:35;101266.59;;;23.16;50.71
13974;BME280;7060;43.770;4.008;2023-08-21T01:53:04;101267.66;;;23.15;50.71
13974;BME280;7060;43.770;4.008;2023-08-21T01:55:33;101264.72;;;23.16;50.41
13974;BME280;7060;43.770;4.008;2023-08-21T01:58:03;101272.25;;;23.21;50.52
13974;BME280;7060;43.770;4.008;2023-08-21T02:00:32;101274.13;;;23.20;50.90
13974;BME280;7060;43.770;4.008;2023-08-21T02:03:01;101281.06;;;23.23;50.46
13974;BME280;7060;43.770;4.008;2023-08-21T02:05:30;101272.47;;;23.26;50.81
13974;BME280;7060;43.770;4.008;2023-08-21T02:07:59;101271.81;;;23.24;50.90
13974;BME280;7060;43.770;4.008;2023-08-21T02:10:28;101263.03;;;23.15;50.70
13974;BME280;7060;43.770;4.008;2023-08-21T02:12:57;101273.53;;;23.25;50.56
13974;BME280;7060;43.770;4.008;2023-08-21T02:15:27;101267.22;;;23.24;50.64
13974;BME280;7060;43.770;4.008;2023-08-21T02:17:56;101271.41;;;23.20;51.00
13974;BME280;7060;43.770;4.008;2023-08-21T02:20:25;101269.75;;;23.13;51.07
13974;BME280;7060;43.770;4.008;2023-08-21T02:22:54;101276.53;;;23.04;51.39
13974;BME280;7060;43.770;4.008;2023-08-21T02:25:31;101277.16;;;22.92;51.64
13974;BME280;7060;43.770;4.008;2023-08-21T02:28:00;101279.91;;;22.92;51.49
13974;BME280;7060;43.770;4.008;2023-08-21T02:30:33;101279.91;;;22.92;51.64
13974;BME280;7060;43.770;4.008;2023-08-21T02:33:02;101289.75;;;22.93;51.39
13974;BME280;7060;43.770;4.008;2023-08-21T02:35:32;101287.03;;;22.93;51.28
13974;BME280;7060;43.770;4.008;2023-08-21T02:38:00;101288.28;;;22.91;51.46
13974;BME280;7060;43.770;4.008;2023-08-21T02:40:29;101294.78;;;22.83;51.75
13974;BME280;7060;43.770;4.008;2023-08-21T02:42:58;101291.28;;;22.76;52.54
13974;BME280;7060;43.770;4.008;2023-08-21T02:45:27;101303.44;;;22.67;52.34
13974;BME280;7060;43.770;4.008;2023-08-21T02:47:58;101295.88;;;22.62;52.35
13974;BME280;7060;43.770;4.008;2023-08-21T02:50:27;101297.97;;;22.54;52.64
13974;BME280;7060;43.770;4.008;2023-08-21T02:52:56;101300.50;;;22.49;52.53
13974;BME280;7060;43.770;4.008;2023-08-21T02:55:26;101299.44;;;22.50;52.67
13974;BME280;7060;43.770;4.008;2023-08-21T02:57:55;101293.38;;;22.48;52.50
13974;BME280;7060;43.770;4.008;2023-08-21T03:00:23;101294.63;;;22.45;52.64
13974;BME280;7060;43.770;4.008;2023-08-21T03:02:52;101295.66;;;22.38;52.70
13974;BME280;7060;43.770;4.008;2023-08-21T03:05:23;101289.59;;;22.36;52.89
13974;BME280;7060;43.770;4.008;2023-08-21T03:07:51;101293.13;;;22.29;53.32
13974;BME280;7060;43.770;4.008;2023-08-21T03:10:20;101298.16;;;22.26;53.25
13974;BME280;7060;43.770;4.008;2023-08-21T03:12:50;101296.09;;;22.21;53.38
13974;BME280;7060;43.770;4.008;2023-08-21T03:15:19;101298.19;;;22.19;53.26
13974;BME280;7060;43.770;4.008;2023-08-21T03:17:48;101296.72;;;22.17;53.14
13974;BME280;7060;43.770;4.008;2023-08-21T03:20:17;101269.88;;;21.94;53.10
13974;BME280;7060;43.770;4.008;2023-08-21T03:22:48;101290.22;;;22.11;53.28
13974;BME280;7060;43.770;4.008;2023-08-21T03:25:17;101286.22;;;22.01;53.72
13974;BME280;7060;43.770;4.008;2023-08-21T03:27:46;101297.94;;;22.01;53.81
13974;BME280;7060;43.770;4.008;2023-08-21T03:30:16;101303.59;;;21.93;53.95
13974;BME280;7060;43.770;4.008;2023-08-21T03:32:45;101298.97;;;21.87;53.86
13974;BME280;7060;43.770;4.008;2023-08-21T03:35:14;101285.72;;;21.77;54.09
13974;BME280;7060;43.770;4.008;2023-08-21T03:37:45;101288.69;;;21.82;54.12
13974;BME280;7060;43.770;4.008;2023-08-21T03:40:16;101300.25;;;21.98;53.44
13974;BME280;7060;43.770;4.008;2023-08-21T03:42:46;101300.03;;;21.99;53.88
13974;BME280;7060;43.770;4.008;2023-08-21T03:45:15;101301.28;;;22.03;53.82
13974;BME280;7060;43.770;4.008;2023-08-21T03:47:45;101303.81;;;22.05;53.78
13974;BME280;7060;43.770;4.008;2023-08-21T03:50:18;101297.53;;;22.04;53.84
13974;BME280;7060;43.770;4.008;2023-08-21T03:52:48;101301.09;;;22.05;53.69
13974;BME280;7060;43.770;4.008;2023-08-21T03:55:18;101306.53;;;22.05;53.58
13974;BME280;7060;43.770;4.008;2023-08-21T03:57:47;101308.81;;;22.01;53.61
13974;BME280;7060;43.770;4.008;2023-08-21T04:00:16;101313.44;;;21.94;54.24
13974;BME280;7060;43.770;4.008;2023-08-21T04:02:49;101312.38;;;21.88;54.00
13974;BME280;7060;43.770;4.008;2023-08-21T04:05:18;101316.16;;;21.87;54.30
13974;BME280;7060;43.770;4.008;2023-08-21T04:07:47;101313.00;;;21.84;54.58
13974;BME280;7060;43.770;4.008;2023-08-21T04:10:24;101315.47;;;21.79;54.43
13974;BME280;7060;43.770;4.008;2023-08-21T04:12:55;101316.25;;;21.73;54.24
13974;BME280;7060;43.770;4.008;2023-08-21T04:15:25;101313.75;;;21.71;54.48
13974;BME280;7060;43.770;4.008;2023-08-21T04:17:54;101314.59;;;21.65;54.56
13974;BME280;7060;43.770;4.008;2023-08-21T04:20:23;101312.88;;;21.57;54.79
13974;BME280;7060;43.770;4.008;2023-08-21T04:22:52;101316.66;;;21.56;54.95
13974;BME280;7060;43.770;4.008;2023-08-21T04:25:20;101314.97;;;21.55;55.11
13974;BME280;7060;43.770;4.008;2023-08-21T04:27:51;101316.63;;;21.50;55.07
13974;BME280;7060;43.770;4.008;2023-08-21T04:30:20;101306.09;;;21.34;55.38
13974;BME280;7060;43.770;4.008;2023-08-21T04:32:49;101328.94;;;21.39;55.35
13974;BME280;7060;43.770;4.008;2023-08-21T04:35:19;101327.69;;;21.42;55.39
13974;BME280;7060;43.770;4.008;2023-08-21T04:37:48;101328.31;;;21.44;55.20
13974;BME280;7060;43.770;4.008;2023-08-21T04:40:19;101335.22;;;21.46;55.51
13974;BME280;7060;43.770;4.008;2023-08-21T04:42:51;101334.81;;;21.49;55.23
13974;BME280;7060;43.770;4.008;2023-08-21T04:45:21;101333.78;;;21.50;55.25
13974;BME280;7060;43.770;4.008;2023-08-21T04:47:50;101339.66;;;21.54;55.08
13974;BME280;7060;43.770;4.008;2023-08-21T04:50:21;101337.38;;;21.57;55.33
13974;BME280;7060;43.770;4.008;2023-08-21T04:52:50;101338.63;;;21.55;55.29
13974;BME280;7060;43.770;4.008;2023-08-21T04:55:19;101348.84;;;21.53;55.46
13974;BME280;7060;43.770;4.008;2023-08-21T04:57:48;101350.50;;;21.47;55.29
13974;BME280;7060;43.770;4.008;2023-08-21T05:00:18;101351.53;;;21.46;55.37
13974;BME280;7060;43.770;4.008;2023-08-21T05:02:47;101359.25;;;21.36;55.79
13974;BME280;7060;43.770;4.008;2023-08-21T05:05:17;101359.84;;;21.32;55.65
13974;BME280;7060;43.770;4.008;2023-08-21T05:07:46;101365.09;;;21.33;55.81
13974;BME280;7060;43.770;4.008;2023-08-21T05:10:14;101363.41;;;21.32;56.05
13974;BME280;7060;43.770;4.008;2023-08-21T05:12:44;101367.41;;;21.36;55.70
13974;BME280;7060;43.770;4.008;2023-08-21T05:15:13;101362.56;;;21.32;55.84
13974;BME280;7060;43.770;4.008;2023-08-21T05:17:44;101370.94;;;21.30;56.20
13974;BME280;7060;43.770;4.008;2023-08-21T05:20:13;101365.88;;;21.27;56.05
13974;BME280;7060;43.770;4.008;2023-08-21T05:22:43;101370.09;;;21.29;56.00
13974;BME280;7060;43.770;4.008;2023-08-21T05:25:12;101349.78;;;21.25;55.76
13974;BME280;7060;43.770;4.008;2023-08-21T05:27:41;101369.75;;;21.46;55.89
13974;BME280;7060;43.770;4.008;2023-08-21T05:30:11;101373.53;;;21.51;55.88
13974;BME280;7060;43.770;4.008;2023-08-21T05:32:41;101379.88;;;21.58;55.49
13974;BME280;7060;43.770;4.008;2023-08-21T05:35:11;101378.22;;;21.64;55.77
13974;BME280;7060;43.770;4.008;2023-08-21T05:37:42;101373.22;;;21.68;55.66
13974;BME280;7060;43.770;4.008;2023-08-21T05:40:11;101383.66;;;21.71;55.68
13974;BME280;7060;43.770;4.008;2023-08-21T05:42:41;101383.66;;;21.71;55.83
13974;BME280;7060;43.770;4.008;2023-08-21T05:45:09;101385.97;;;21.74;55.70
13974;BME280;7060;43.770;4.008;2023-08-21T05:47:38;101375.53;;;21.77;55.60
13974;BME280;7060;43.770;4.008;2023-08-21T05:50:08;101382.72;;;21.85;55.38
13974;BME280;7060;43.770;4.008;2023-08-21T05:52:39;101384.66;;;21.98;55.43
13974;BME280;7060;43.770;4.008;2023-08-21T05:55:10;101381.97;;;22.11;55.30
13974;BME280;7060;43.770;4.008;2023-08-21T05:57:38;101386.59;;;22.30;55.00
13974;BME280;7060;43.770;4.008;2023-08-21T06:00:08;101388.72;;;22.48;54.71
13974;BME280;7060;43.770;4.008;2023-08-21T06:02:43;101386.47;;;22.65;54.16
13974;BME280;7060;43.770;4.008;2023-08-21T06:05:30;101387.72;;;22.75;54.00
13974;BME280;7060;43.770;4.008;2023-08-21T06:08:00;101383.72;;;22.84;53.86
13974;BME280;7060;43.770;4.008;2023-08-21T06:10:31;101393.38;;;22.93;53.47
13974;BME280;7060;43.770;4.008;2023-08-21T06:13:00;101382.25;;;23.02;53.46
13974;BME280;7060;43.770;4.008;2023-08-21T06:15:29;101389.75;;;23.13;53.44
13974;BME280;7060;43.770;4.008;2023-08-21T06:17:59;101394.41;;;23.25;53.04
13974;BME280;7060;43.770;4.008;2023-08-21T06:20:29;101384.50;;;23.38;52.83
13974;BME280;7060;43.770;4.008;2023-08-21T06:22:57;101396.84;;;23.53;52.95
13974;BME280;7060;43.770;4.008;2023-08-21T06:25:28;101396.75;;;23.73;52.63
13974;BME280;7060;43.770;4.008;2023-08-21T06:27:58;101392.03;;;24.00;52.17
13974;BME280;7060;43.770;4.008;2023-08-21T06:30:27;101400.16;;;24.45;52.01
13974;BME280;7060;43.770;4.008;2023-08-21T06:32:56;101401.81;;;25.02;51.07
13974;BME280;7060;43.770;4.008;2023-08-21T06:35:26;101405.78;;;25.68;49.49
13974;BME280;7060;43.770;4.008;2023-08-21T06:37:55;101408.56;;;26.27;48.71
13974;BME280;7060;43.770;4.008;2023-08-21T06:40:23;101400.25;;;26.87;47.56
13974;BME280;7060;43.770;4.008;2023-08-21T06:42:53;101385.22;;;27.37;46.33
13974;BME280;7060;43.770;4.008;2023-08-21T06:45:26;101394.69;;;28.09;45.48
13974;BME280;7060;43.770;4.008;2023-08-21T06:47:59;101393.72;;;28.77;43.71
13974;BME280;7060;43.770;4.008;2023-08-21T06:50:28;101396.47;;;29.49;42.20
13974;BME280;7060;43.770;4.008;2023-08-21T06:52:56;101390.13;;;30.14;40.97
13974;BME280;7060;43.770;4.008;2023-08-21T06:55:25;101391.56;;;30.81;39.56
13974;BME280;7060;43.770;4.008;2023-08-21T06:57:56;101388.91;;;31.38;38.89
13974;BME280;7060;43.770;4.008;2023-08-21T07:00:25;101384.97;;;31.86;37.23
13974;BME280;7060;43.770;4.008;2023-08-21T07:02:53;101386.78;;;32.33;37.00
13974;BME280;7060;43.770;4.008;2023-08-21T07:05:22;101387.34;;;32.81;35.90
13974;BME280;7060;43.770;4.008;2023-08-21T07:07:51;101391.69;;;33.33;34.96
13974;BME280;7060;43.770;4.008;2023-08-21T07:10:20;101385.69;;;33.75;34.40
13974;BME280;7060;43.770;4.008;2023-08-21T07:12:49;101389.94;;;34.11;33.51
13974;BME280;7060;43.770;4.008;2023-08-21T07:15:20;101391.72;;;34.41;33.12
13974;BME280;7060;43.770;4.008;2023-08-21T07:17:49;101392.91;;;34.64;32.37
13974;BME280;7060;43.770;4.008;2023-08-21T07:20:18;101386.56;;;34.92;32.36
13974;BME280;7060;43.770;4.008;2023-08-21T07:22:47;101400.41;;;35.26;31.70
13974;BME280;7060;43.770;4.008;2023-08-21T07:25:16;101392.56;;;35.52;31.50
13974;BME280;7060;43.770;4.008;2023-08-21T07:27:47;101388.38;;;35.79;31.10
13974;BME280;7060;43.770;4.008;2023-08-21T07:30:16;101393.69;;;35.94;30.87
13974;BME280;7060;43.770;4.008;2023-08-21T07:32:47;101393.72;;;36.13;30.38
13974;BME280;7060;43.770;4.008;2023-08-21T07:35:16;101390.50;;;36.24;29.89
13974;BME280;7060;43.770;4.008;2023-08-21T07:37:45;101375.44;;;36.25;30.18
13974;BME280;7060;43.770;4.008;2023-08-21T07:40:14;101385.06;;;36.33;29.76
13974;BME280;7060;43.770;4.008;2023-08-21T07:42:42;101390.34;;;36.35;29.80
13974;BME280;7060;43.770;4.008;2023-08-21T07:45:11;101387.19;;;36.22;30.31
13974;BME280;7060;43.770;4.008;2023-08-21T07:47:40;101394.63;;;36.08;30.43
13974;BME280;7060;43.770;4.008;2023-08-21T07:50:11;101392.56;;;35.95;30.60
13974;BME280;7060;43.770;4.008;2023-08-21T07:52:41;101392.59;;;35.71;30.85
13974;BME280;7060;43.770;4.008;2023-08-21T07:55:10;101291.56;;;34.90;31.47
13974;BME280;7060;43.770;4.008;2023-08-21T07:57:41;101399.09;;;35.43;31.15
13974;BME280;7060;43.770;4.008;2023-08-21T08:00:11;101403.66;;;35.34;31.07
13974;BME280;7060;43.770;4.008;2023-08-21T08:02:40;101399.63;;;35.16;31.46
13974;BME280;7060;43.770;4.008;2023-08-21T08:05:11;101401.97;;;35.09;31.52
13974;BME280;7060;43.770;4.008;2023-08-21T08:07:40;101397.56;;;35.03;32.29
13974;BME280;7060;43.770;4.008;2023-08-21T08:10:09;101395.03;;;35.06;32.26
13974;BME280;7060;43.770;4.008;2023-08-21T08:12:41;101396.41;;;35.09;31.77
13974;BME280;7060;43.770;4.008;2023-08-21T08:15:13;101397.22;;;35.09;32.07
13974;BME280;7060;43.770;4.008;2023-08-21T08:17:42;101393.53;;;35.14;31.66
13974;BME280;7060;43.770;4.008;2023-08-21T08:20:12;101389.34;;;35.16;31.48
13974;BME280;7060;43.770;4.008;2023-08-21T08:22:43;101392.97;;;35.17;31.64
13974;BME280;7060;43.770;4.008;2023-08-21T08:25:14;101397.41;;;35.18;31.45
13974;BME280;7060;43.770;4.008;2023-08-21T08:27:45;101388.75;;;35.19;31.42
13974;BME280;7060;43.770;4.008;2023-08-21T08:30:14;101386.88;;;35.15;31.92
13974;BME280;7060;43.770;4.008;2023-08-21T08:32:47;101390.97;;;35.22;31.63
13974;BME280;7060;43.770;4.008;2023-08-21T08:35:21;101400.41;;;35.26;31.26
13974;BME280;7060;43.770;4.008;2023-08-21T08:37:51;101391.75;;;35.28;31.22
13974;BME280;7060;43.770;4.008;2023-08-21T08:40:21;101393.44;;;35.29;30.96
13974;BME280;7060;43.770;4.008;2023-08-21T08:42:50;101395.13;;;35.25;30.80
13974;BME280;7060;43.770;4.008;2023-08-21T08:45:28;101394.78;;;35.32;31.23
13974;BME280;7060;43.770;4.008;2023-08-21T08:48:00;101391.03;;;35.41;31.31
13974;BME280;7060;43.770;4.008;2023-08-21T08:50:33;101390.88;;;35.56;30.80
13974;BME280;7060;43.770;4.008;2023-08-21T08:53:03;101383.50;;;35.66;30.23
13974;BME280;7060;43.770;4.008;2023-08-21T08:55:44;101391.47;;;35.72;30.37
13974;BME280;7060;43.770;4.008;2023-08-21T08:58:15;101384.63;;;35.88;30.50
13974;BME280;7060;43.770;4.008;2023-08-21T09:00:44;101380.19;;;36.06;30.03
13974;BME280;7060;43.770;4.008;2023-08-21T09:03:14;101374.91;;;36.23;29.69
13974;BME280;7060;43.770;4.008;2023-08-21T09:05:46;101374.38;;;36.40;29.31
13974;BME280;7060;43.770;4.008;2023-08-21T09:08:15;101376.50;;;36.62;29.72
13974;BME280;7060;43.770;4.008;2023-08-21T09:10:44;101383.47;;;36.78;28.60
13974;BME280;7060;43.770;4.008;2023-08-21T09:13:19;101376.81;;;36.93;28.75
13974;BME280;7060;43.770;4.008;2023-08-21T09:15:53;101369.59;;;36.92;28.48
13974;BME280;7060;43.770;4.008;2023-08-21T09:18:24;101373.13;;;36.98;27.85
13974;BME280;7060;43.770;4.008;2023-08-21T09:20:55;101372.69;;;37.04;28.22
13974;BME280;7060;43.770;4.008;2023-08-21T09:23:28;101301.66;;;36.74;27.75
13974;BME280;7060;43.770;4.008;2023-08-21T09:25:59;101367.06;;;37.23;27.79
13974;BME280;7060;43.770;4.008;2023-08-21T09:28:27;101360.34;;;37.38;27.80
13974;BME280;7060;43.770;4.008;2023-08-21T09:30:57;101256.97;;;36.79;27.88
13974;BME280;7060;43.770;4.008;2023-08-21T09:33:30;101358.69;;;37.50;27.24
13974;BME280;7060;43.770;4.008;2023-08-21T09:36:04;101362.81;;;37.53;27.20
13974;BME280;7060;43.770;4.008;2023-08-21T09:38:34;101365.28;;;37.54;27.39
13974;BME280;7060;43.770;4.008;2023-08-21T09:41:04;101354.03;;;37.59;27.83
13974;BME280;7060;43.770;4.008;2023-08-21T09:43:41;101363.84;;;37.71;27.03
13974;BME280;7060;43.770;4.008;2023-08-21T09:46:14;101270.50;;;37.27;27.18
13974;BME280;7060;43.770;4.008;2023-08-21T09:48:55;101331.19;;;37.71;26.89
13974;BME280;7060;43.770;4.008;2023-08-21T09:51:27;101359.63;;;37.96;27.15
13974;BME280;7060;43.770;4.008;2023-08-21T09:53:57;101248.25;;;37.36;26.93
13974;BME280;7060;43.770;4.008;2023-08-21T09:56:28;101358.03;;;38.17;26.58
13974;BME280;7060;43.770;4.008;2023-08-21T09:58:58;101352.75;;;38.15;25.96
13974;BME280;7060;43.770;4.008;2023-08-21T10:01:30;101343.03;;;38.13;26.48
13974;BME280;7060;43.770;4.008;2023-08-21T10:04:21;101347.75;;;38.26;26.17
13974;BME280;7060;43.770;4.008;2023-08-21T10:06:56;101351.28;;;38.40;26.15
13974;BME280;7060;43.770;4.008;2023-08-21T10:09:30;101355.31;;;38.48;25.75
13974;BME280;7060;43.770;4.008;2023-08-21T10:11:59;101348.66;;;38.57;25.85
13974;BME280;7060;43.770;4.008;2023-08-21T10:14:28;101345.91;;;38.66;25.73
13974;BME280;7060;43.770;4.008;2023-08-21T10:16:57;101349.88;;;38.74;25.58
13974;BME280;7060;43.770;4.008;2023-08-21T10:19:30;101325.97;;;38.59;24.90
13974;BME280;7060;43.770;4.008;2023-08-21T10:22:01;101343.78;;;38.72;24.96
13974;BME280;7060;43.770;4.008;2023-08-21T10:24:35;101337.09;;;38.81;24.49
13974;BME280;7060;43.770;4.008;2023-08-21T10:27:06;101339.75;;;38.86;24.35
13974;BME280;7060;43.770;4.008;2023-08-21T10:29:35;101336.03;;;38.91;24.13
13974;BME280;7060;43.770;4.008;2023-08-21T10:32:05;101333.56;;;38.89;24.19
13974;BME280;7060;43.770;4.008;2023-08-21T10:34:35;101339.50;;;38.97;23.85
13974;BME280;7060;43.770;4.008;2023-08-21T10:37:08;101344.16;;;39.10;23.88
13974;BME280;7060;43.770;4.008;2023-08-21T10:39:55;101334.50;;;39.24;23.57
13974;BME280;7060;43.770;4.008;2023-08-21T10:42:40;101334.41;;;39.38;23.65
13974;BME280;7060;43.770;4.008;2023-08-21T10:45:11;101333.94;;;39.45;23.04
13974;BME280;7060;43.770;4.008;2023-08-21T10:47:40;101332.28;;;39.52;22.92
13974;BME280;7060;43.770;4.008;2023-08-21T10:50:08;101335.94;;;39.62;22.75
13974;BME280;7060;43.770;4.008;2023-08-21T10:52:40;101327.19;;;39.63;22.72
13974;BME280;7060;43.770;4.008;2023-08-21T10:55:13;101324.63;;;39.75;22.50
13974;BME280;7060;43.770;4.008;2023-08-21T10:57:41;101317.69;;;39.90;22.34
13974;BME280;7060;43.770;4.008;2023-08-21T11:00:12;101314.72;;;39.95;22.60
13974;BME280;7060;43.770;4.008;2023-08-21T11:02:43;101312.56;;;40.09;22.66
13974;BME280;7060;43.770;4.008;2023-08-21T11:05:13;101299.22;;;40.15;22.51
13974;BME280;7060;43.770;4.008;2023-08-21T11:07:45;101310.94;;;40.26;21.98
13974;BME280;7060;43.770;4.008;2023-08-21T11:10:15;101317.03;;;40.28;21.87
13974;BME280;7060;43.770;4.008;2023-08-21T11:12:50;101309.13;;;40.30;21.79
13974;BME280;7060;43.770;4.008;2023-08-21T11:15:19;101311.41;;;40.36;21.97
13974;BME280;7060;43.770;4.008;2023-08-21T11:17:57;101308.09;;;40.43;21.18
13974;BME280;7060;43.770;4.008;2023-08-21T11:20:28;101310.41;;;40.41;21.75
13974;BME280;7060;43.770;4.008;2023-08-21T11:22:59;101314.00;;;40.50;21.64
13974;BME280;7060;43.770;4.008;2023-08-21T11:25:29;101312.84;;;40.60;21.38
13974;BME280;7060;43.770;4.008;2023-08-21T11:28:00;101311.69;;;40.61;21.32
13974;BME280;7060;43.770;4.008;2023-08-21T11:30:31;101299.47;;;40.65;20.51
13974;BME280;7060;43.770;4.008;2023-08-21T11:33:07;101304.06;;;40.78;19.37
13974;BME280;7060;43.770;4.008;2023-08-21T11:35:37;101301.41;;;40.82;18.98
13974;BME280;7060;43.770;4.008;2023-08-21T11:38:14;101294.47;;;40.79;19.01
13974;BME280;7060;43.770;4.008;2023-08-21T11:40:51;101295.31;;;40.80;18.47
13974;BME280;7060;43.770;4.008;2023-08-21T11:43:20;101306.38;;;40.76;18.53
13974;BME280;7060;43.770;4.008;2023-08-21T11:45:49;101300.25;;;40.83;18.35
13974;BME280;7060;43.770;4.008;2023-08-21T11:48:25;101296.63;;;40.82;18.30
13974;BME280;7060;43.770;4.008;2023-08-21T11:50:55;101302.22;;;40.82;18.04
13974;BME280;7060;43.770;4.008;2023-08-21T11:53:35;101285.91;;;40.76;18.37
13974;BME280;7060;43.770;4.008;2023-08-21T11:56:09;101289.22;;;40.78;18.42
13974;BME280;7060;43.770;4.008;2023-08-21T11:58:40;101287.16;;;40.87;18.52
13974;BME280;7060;43.770;4.008;2023-08-21T12:01:09;101283.03;;;40.93;17.95
13974;BME280;7060;43.770;4.008;2023-08-21T12:08:24;101274.38;;;40.77;17.92
13974;BME280;7060;43.770;4.008;2023-08-21T12:10:54;101279.00;;;40.73;18.42
13974;BME280;7060;43.770;4.008;2023-08-21T12:13:23;101270.59;;;40.73;18.16
13974;BME280;7060;43.770;4.008;2023-08-21T12:15:55;101267.59;;;40.78;18.55
13974;BME280;7060;43.770;4.008;2023-08-21T12:18:24;101274.84;;;40.79;18.53
13974;BME280;7060;43.770;4.008;2023-08-21T12:20:53;101268.38;;;40.87;18.76
13974;BME280;7060;43.770;4.008;2023-08-21T12:23:22;101266.25;;;40.84;18.33
13974;BME280;7060;43.770;4.008;2023-08-21T12:25:51;101256.81;;;40.89;18.36
13974;BME280;7060;43.770;4.008;2023-08-21T12:28:21;101253.84;;;40.85;18.92
13974;BME280;7060;43.770;4.008;2023-08-21T12:30:50;101254.69;;;40.86;18.84
13974;BME280;7060;43.770;4.008;2023-08-21T12:33:18;101254.75;;;40.77;18.91
13974;BME280;7060;43.770;4.008;2023-08-21T12:35:50;101256.38;;;40.78;19.15
13974;BME280;7060;43.770;4.008;2023-08-21T12:38:19;101260.16;;;40.82;18.89
13974;BME280;7060;43.770;4.008;2023-08-21T12:40:50;101247.09;;;40.86;18.99
13974;BME280;7060;43.770;4.008;2023-08-21T12:43:21;101249.56;;;40.88;19.02
13974;BME280;7060;43.770;4.008;2023-08-21T12:45:51;101247.56;;;40.88;18.89
13974;BME280;7060;43.770;4.008;2023-08-21T12:48:20;101246.56;;;40.93;19.24
13974;BME280;7060;43.770;4.008;2023-08-21T12:50:48;101251.69;;;40.91;19.30
13974;BME280;7060;43.770;4.008;2023-08-21T12:53:18;101255.13;;;40.97;19.36
13974;BME280;7060;43.770;4.008;2023-08-21T12:55:47;101249.22;;;40.89;18.75
13974;BME280;7060;43.770;4.008;2023-08-21T12:58:16;101253.06;;;40.85;19.19
13974;BME280;7060;43.770;4.008;2023-08-21T13:00:48;101248.94;;;40.82;19.76
13974;BME280;7060;43.770;4.008;2023-08-21T13:03:17;101252.09;;;40.81;19.35
13974;BME280;7060;43.770;4.008;2023-08-21T13:05:46;101248.81;;;40.79;19.11
13974;BME280;7060;43.770;4.008;2023-08-21T13:08:15;101247.69;;;40.71;19.37
13974;BME280;7060;43.770;4.008;2023-08-21T13:10:44;101245.72;;;40.63;19.54
13974;BME280;7060;43.770;4.008;2023-08-21T13:13:13;101245.25;;;40.61;19.17
13974;BME280;7060;43.770;4.008;2023-08-21T13:15:43;101235.50;;;40.67;19.15
13974;BME280;7060;43.770;4.008;2023-08-21T13:18:15;101240.25;;;40.75;18.52
13974;BME280;7060;43.770;4.008;2023-08-21T13:20:45;101233.69;;;40.63;18.52